This is the latest recevied weather packets stored in our database for station/object AI5ON. If no packets are shown the sender has not sent any weather packets the latest 10 day(s).
| Time | Temp. | Humidity | Pressure | Rain* | Wind** | Luminosity | Snow |
|---|---|---|---|---|---|---|---|
| 1788046256 | 33.89° C | 51% | 1014.4 hPa | 0 mm | - | 155 W/m² | - |
| 1788045953 | 33.89° C | 51% | 1014.4 hPa | 0 mm | - | 166 W/m² | - |
| 1788045644 | 34.44° C | 48% | 1014.2 hPa | 0 mm | - | 183 W/m² | - |
| 1788045344 | 34.44° C | 49% | 1014.3 hPa | 0 mm | - | 200 W/m² | - |
| 1788045040 | 34.44° C | 49% | 1014.5 hPa | 0 mm | - | 219 W/m² | - |
| 1788044738 | 34.44° C | 50% | 1014.4 hPa | 0 mm | - | 239 W/m² | - |
| 1788044434 | 34.44° C | 48% | 1014.3 hPa | 0 mm | - | 251 W/m² | - |
| 1788044133 | 33.89° C | 51% | 1014.5 hPa | 0 mm | - | 270 W/m² | - |
| 1788043830 | 33.89° C | 49% | 1014.5 hPa | 0 mm | - | 254 W/m² | - |
| 1788043525 | 34.44° C | 46% | 1014.5 hPa | 0 mm | - | 154 W/m² | - |
| 1788043224 | 34.44° C | 47% | 1014.4 hPa | 0 mm | - | 218 W/m² | - |
| 1788042919 | 34.44° C | 49% | 1014.6 hPa | 0 mm | - | 309 W/m² | - |
| 1788042615 | 35° C | 46% | 1014.4 hPa | 0 mm | - | 194 W/m² | - |
| 1788042308 | 35° C | 46% | 1014.3 hPa | 0 mm | - | 383 W/m² | - |
| 1788042003 | 35° C | 48% | 1014.5 hPa | 0 mm | - | 413 W/m² | - |
| 1788041699 | 35° C | 49% | 1014.6 hPa | 0 mm | - | 445 W/m² | - |
| 1788041394 | 35° C | 47% | 1014.5 hPa | 0 mm | - | 467 W/m² | - |
| 1788041093 | 35° C | 45% | 1014.4 hPa | 0 mm | - | 478 W/m² | - |
| 1788040792 | 35° C | 45% | 1014.5 hPa | 0 mm | - | 496 W/m² | - |
| 1788040486 | 35° C | 45% | 1014.7 hPa | 0 mm | - | 517 W/m² | - |
| 1788040183 | 35.56° C | 45% | 1014.5 hPa | 0 mm | - | 537 W/m² | - |
| 1788039882 | 35° C | 44% | 1014.4 hPa | 0 mm | - | 552 W/m² | - |
| 1788039577 | 35° C | 47% | 1014.6 hPa | 0 mm | - | 567 W/m² | - |
| 1788039272 | 35° C | 47% | 1014.6 hPa | 0 mm | - | 582 W/m² | - |
| 1788038967 | 35° C | 47% | 1014.6 hPa | 0 mm | - | 489 W/m² | - |
* Rain latest hour (hover to see other rain measurements)
** Current wind speed in m/s (hover to see current wind gust speed)